Time;durP1;ratioP1;P1;durP2;ratioP2;P2;SDS_P1;SDS_P2;PMS_P1;PMS_P2;Temp;Humidity;BMP_temperature;BMP_pressure;BME280_temperature;BME280_humidity;BME280_pressure;Samples;Min_cycle;Max_cycle;Signal;HPM_P1;HPM_P2
2021/06/18 00:00:07;;;;;;;17.20;15.40;;;22.70;99.90;;;;;;5063722;28;20445;-69
2021/06/18 00:02:37;;;;;;;15.87;14.27;;;22.80;99.90;;;;;;5066108;28;20457;-68
2021/06/18 00:05:05;;;;;;;16.80;15.10;;;22.80;99.90;;;;;;5064859;28;20459;-69
2021/06/18 00:07:32;;;;;;;15.27;13.87;;;22.80;99.90;;;;;;5069173;28;20448;-69
2021/06/18 00:09:59;;;;;;;18.97;17.00;;;22.80;99.90;;;;;;5059655;28;20444;-70
2021/06/18 00:12:26;;;;;;;18.03;16.33;;;22.80;99.90;;;;;;5065916;28;20856;-69
2021/06/18 00:14:56;;;;;;;16.07;14.47;;;22.70;99.90;;;;;;5059314;28;20460;-69
2021/06/18 00:17:23;;;;;;;19.83;14.30;;;22.70;99.90;;;;;;5064586;28;20442;-68
2021/06/18 00:19:51;;;;;;;15.43;13.90;;;22.70;99.90;;;;;;5065237;28;20455;-69
2021/06/18 00:22:18;;;;;;;14.43;11.80;;;22.70;99.90;;;;;;5069657;28;20792;-69
2021/06/18 00:24:46;;;;;;;15.87;14.37;;;22.70;99.90;;;;;;5063063;28;20468;-68
2021/06/18 00:27:13;;;;;;;13.73;12.40;;;22.80;99.90;;;;;;5068308;28;20460;-69
2021/06/18 00:29:40;;;;;;;15.77;14.27;;;22.80;99.90;;;;;;5071821;28;20441;-69
2021/06/18 00:32:08;;;;;;;16.73;14.93;;;22.70;99.90;;;;;;5069535;28;20485;-68
2021/06/18 00:34:35;;;;;;;18.43;16.60;;;22.70;99.90;;;;;;5071865;28;20449;-69
2021/06/18 00:37:04;;;;;;;18.60;16.50;;;22.70;99.90;;;;;;5072016;28;20476;-69
2021/06/18 00:39:32;;;;;;;18.17;16.20;;;22.70;99.90;;;;;;5060358;28;20441;-69
2021/06/18 00:41:59;;;;;;;17.50;15.13;;;22.70;99.90;;;;;;5061666;28;20465;-69
2021/06/18 00:44:26;;;;;;;18.53;16.63;;;22.60;99.90;;;;;;5062986;28;20468;-69
2021/06/18 00:46:54;;;;;;;18.03;16.33;;;22.60;99.90;;;;;;5074175;28;20441;-69
2021/06/18 00:49:22;;;;;;;20.07;17.93;;;22.60;99.90;;;;;;5072221;28;20436;-68
2021/06/18 00:51:50;;;;;;;19.27;17.37;;;22.50;99.90;;;;;;5066829;28;20489;-68
2021/06/18 00:54:28;;;;;;;21.57;19.37;;;22.50;99.90;;;;;;5055818;28;20448;-69
2021/06/18 00:56:55;;;;;;;19.93;17.90;;;22.40;99.90;;;;;;5059892;28;20457;-70
2021/06/18 00:59:23;;;;;;;25.73;21.40;;;22.40;99.90;;;;;;5064717;28;20900;-69
2021/06/18 01:01:50;;;;;;;22.20;19.70;;;22.40;99.90;;;;;;5058435;28;20803;-69
2021/06/18 01:04:19;;;;;;;20.80;18.43;;;22.40;99.90;;;;;;5063855;28;20444;-69
2021/06/18 01:06:53;;;;;;;19.77;17.70;;;22.30;99.90;;;;;;5067720;28;20884;-69
2021/06/18 01:09:23;;;;;;;23.50;21.10;;;22.30;99.90;;;;;;5059931;28;20448;-69
2021/06/18 01:11:59;;;;;;;22.23;17.80;;;22.30;99.90;;;;;;5060547;28;20488;-69
2021/06/18 01:14:33;;;;;;;23.70;21.40;;;22.30;99.90;;;;;;5060449;28;20455;-69
2021/06/18 01:17:05;;;;;;;24.00;21.60;;;22.30;99.90;;;;;;5074213;28;20866;-69
2021/06/18 01:19:49;;;;;;;20.70;18.57;;;22.20;99.90;;;;;;5073421;28;20452;-69
2021/06/18 01:22:19;;;;;;;22.00;19.70;;;22.20;99.90;;;;;;5063300;28;20554;-69
2021/06/18 01:25:01;;;;;;;23.10;20.90;;;22.20;99.90;;;;;;5060873;28;20467;-69
2021/06/18 01:27:41;;;;;;;23.70;21.30;;;22.30;99.90;;;;;;5074211;28;20819;-69
2021/06/18 01:30:12;;;;;;;20.13;18.03;;;22.30;99.90;;;;;;5068150;28;20445;-69
2021/06/18 01:32:43;;;;;;;20.70;18.50;;;22.30;99.90;;;;;;5067761;28;20492;-70
2021/06/18 01:35:16;;;;;;;23.23;20.80;;;22.30;99.90;;;;;;5068267;28;20882;-71
2021/06/18 01:37:48;;;;;;;27.27;22.40;;;22.20;99.90;;;;;;5076937;28;20455;-70
2021/06/18 01:40:17;;;;;;;23.77;21.27;;;22.20;99.90;;;;;;5068334;28;20443;-70
2021/06/18 01:42:48;;;;;;;23.50;20.00;;;22.20;99.90;;;;;;5063133;28;20931;-69
2021/06/18 01:45:19;;;;;;;22.77;20.47;;;22.20;99.90;;;;;;5070981;28;20973;-70
2021/06/18 01:47:48;;;;;;;25.17;22.73;;;22.20;99.90;;;;;;5062306;28;20801;-69
2021/06/18 01:50:17;;;;;;;23.10;20.87;;;22.10;99.90;;;;;;5070525;28;20466;-70
2021/06/18 01:52:50;;;;;;;25.47;22.90;;;22.10;99.90;;;;;;5056665;28;20496;-69
2021/06/18 01:55:19;;;;;;;25.00;22.37;;;22.00;99.90;;;;;;5064251;28;20451;-70
2021/06/18 01:58:10;;;;;;;23.13;21.00;;;22.00;99.90;;;;;;5073502;28;20448;-69
2021/06/18 02:00:42;;;;;;;24.07;21.67;;;22.00;99.90;;;;;;5067617;28;20455;-70
2021/06/18 02:03:12;;;;;;;21.33;18.93;;;22.00;99.90;;;;;;5063548;28;20465;-70
2021/06/18 02:05:40;;;;;;;23.53;21.23;;;22.10;99.90;;;;;;5069909;28;20799;-69
2021/06/18 02:08:09;;;;;;;23.13;20.77;;;22.10;99.90;;;;;;5069464;28;20468;-71
2021/06/18 02:10:39;;;;;;;22.03;19.60;;;22.10;99.90;;;;;;5057255;28;20446;-70
2021/06/18 02:13:08;;;;;;;21.17;19.17;;;22.10;99.90;;;;;;5061782;28;20487;-69
2021/06/18 02:15:37;;;;;;;22.07;20.20;;;22.00;99.90;;;;;;5068239;28;20646;-69
2021/06/18 02:18:08;;;;;;;22.33;20.00;;;21.90;99.90;;;;;;5058396;28;20801;-69
2021/06/18 02:20:37;;;;;;;25.47;22.90;;;21.90;99.90;;;;;;5061350;28;20456;-69
2021/06/18 02:23:05;;;;;;;21.10;19.10;;;21.90;99.90;;;;;;5060861;28;20946;-70
2021/06/18 02:25:32;;;;;;;25.33;22.60;;;21.90;99.90;;;;;;5073566;28;20455;-69
2021/06/18 02:28:01;;;;;;;26.47;23.93;;;21.90;99.90;;;;;;5066149;28;20951;-70
2021/06/18 02:30:28;;;;;;;27.33;24.13;;;21.90;99.90;;;;;;5057230;28;20887;-70
2021/06/18 02:32:58;;;;;;;23.23;21.03;;;21.90;99.90;;;;;;5059529;28;20924;-71
2021/06/18 02:35:28;;;;;;;25.00;22.40;;;21.90;99.90;;;;;;5062284;28;20690;-69
2021/06/18 02:37:57;;;;;;;24.13;21.67;;;21.90;99.90;;;;;;5059000;28;20463;-69
2021/06/18 02:40:24;;;;;;;26.27;23.23;;;21.90;99.90;;;;;;5062830;28;20448;-70
2021/06/18 02:42:51;;;;;;;32.07;28.23;;;21.80;99.90;;;;;;5062016;28;20820;-69
2021/06/18 02:45:18;;;;;;;27.23;24.63;;;21.80;99.90;;;;;;5070127;28;20454;-69
2021/06/18 02:47:53;;;;;;;25.60;23.30;;;21.80;99.90;;;;;;5062903;28;20446;-71
2021/06/18 02:50:25;;;;;;;27.87;25.17;;;21.80;99.90;;;;;;5071807;28;20446;-69
2021/06/18 02:52:59;;;;;;;26.30;23.60;;;21.80;99.90;;;;;;5069885;28;20479;-69
2021/06/18 02:55:33;;;;;;;29.07;26.07;;;21.80;99.90;;;;;;5062070;28;20462;-69
2021/06/18 02:58:07;;;;;;;31.07;28.20;;;21.70;99.90;;;;;;5064418;28;20497;-69
2021/06/18 03:00:34;;;;;;;32.60;29.40;;;21.70;99.90;;;;;;5067417;28;20856;-69
2021/06/18 03:03:05;;;;;;;31.07;27.73;;;21.60;99.90;;;;;;5063025;28;20460;-69
2021/06/18 03:05:34;;;;;;;27.27;24.67;;;21.70;99.90;;;;;;5063152;28;20532;-69
2021/06/18 03:08:07;;;;;;;29.17;26.07;;;21.60;99.90;;;;;;5068427;28;20453;-70
2021/06/18 03:10:37;;;;;;;28.70;25.60;;;21.60;99.90;;;;;;5067354;28;20458;-69
2021/06/18 03:13:13;;;;;;;31.10;27.83;;;21.60;99.90;;;;;;5072501;28;20490;-70
2021/06/18 03:15:43;;;;;;;35.23;31.47;;;21.60;99.90;;;;;;5063611;28;20954;-70
2021/06/18 03:18:12;;;;;;;31.73;28.63;;;21.60;99.90;;;;;;5061830;28;20516;-71
2021/06/18 03:20:40;;;;;;;37.33;33.33;;;21.60;99.90;;;;;;5062581;28;20815;-69
2021/06/18 03:23:12;;;;;;;33.87;27.73;;;21.60;99.90;;;;;;5065786;28;20822;-70
2021/06/18 03:25:41;;;;;;;37.03;33.37;;;21.50;99.90;;;;;;5066876;28;20441;-71
2021/06/18 03:28:09;;;;;;;36.70;32.80;;;21.60;99.90;;;;;;5061530;28;20448;-70
2021/06/18 03:30:37;;;;;;;42.30;37.60;;;21.60;99.90;;;;;;5060030;28;20510;-70
2021/06/18 03:33:05;;;;;;;44.47;39.83;;;21.50;99.90;;;;;;5059673;28;20483;-70
2021/06/18 03:35:33;;;;;;;39.47;32.93;;;21.60;99.90;;;;;;5057933;28;20451;-70
2021/06/18 03:38:01;;;;;;;46.23;38.90;;;21.60;99.90;;;;;;5051638;28;20914;-70
2021/06/18 03:40:30;;;;;;;41.90;36.17;;;21.70;99.90;;;;;;5054161;28;20448;-70
2021/06/18 03:42:57;;;;;;;42.23;36.40;;;21.80;99.90;;;;;;5062161;28;20471;-70
2021/06/18 03:45:24;;;;;;;42.03;37.37;;;21.90;99.90;;;;;;5071180;28;20459;-70
2021/06/18 03:47:52;;;;;;;44.73;40.10;;;21.90;99.90;;;;;;5060418;28;20456;-70
2021/06/18 03:50:21;;;;;;;45.57;40.73;;;22.00;99.90;;;;;;5061489;28;20853;-71
2021/06/18 03:52:48;;;;;;;50.80;42.40;;;22.10;99.90;;;;;;5063797;28;20496;-69
2021/06/18 03:55:16;;;;;;;49.63;44.70;;;22.10;99.90;;;;;;5063733;28;20452;-69
2021/06/18 03:57:49;;;;;;;41.40;37.10;;;22.10;99.90;;;;;;5069255;28;20448;-70
2021/06/18 04:00:18;;;;;;;40.63;36.43;;;22.10;99.90;;;;;;5062236;28;20446;-69
2021/06/18 04:02:45;;;;;;;45.60;40.70;;;22.20;99.90;;;;;;5062840;28;20475;-70
2021/06/18 04:05:15;;;;;;;47.10;42.10;;;22.30;99.90;;;;;;5067007;28;20454;-70
2021/06/18 04:07:47;;;;;;;47.13;42.10;;;22.60;99.90;;;;;;5066635;28;20450;-69
2021/06/18 04:10:15;;;;;;;50.63;40.70;;;22.80;99.90;;;;;;5063613;28;20451;-71
2021/06/18 04:12:43;;;;;;;46.37;41.17;;;23.20;99.90;;;;;;5068456;28;20493;-70
2021/06/18 04:15:13;;;;;;;40.03;36.23;;;23.60;99.90;;;;;;5064764;28;20445;-70
2021/06/18 04:17:41;;;;;;;44.43;37.90;;;24.00;99.90;;;;;;5069911;28;20441;-68
2021/06/18 04:20:09;;;;;;;35.13;31.73;;;24.40;99.90;;;;;;5071937;28;20453;-70
2021/06/18 04:22:37;;;;;;;43.50;38.87;;;24.80;99.90;;;;;;5064552;28;20482;-68
2021/06/18 04:25:05;;;;;;;38.07;34.20;;;25.30;99.90;;;;;;5070447;28;20437;-69
2021/06/18 04:27:33;;;;;;;40.23;36.30;;;25.60;99.90;;;;;;5068458;28;20485;-69
2021/06/18 04:30:00;;;;;;;36.10;32.60;;;26.00;99.90;;;;;;5065886;28;20445;-69
2021/06/18 04:32:29;;;;;;;34.70;31.30;;;26.40;99.90;;;;;;5066370;28;20469;-69
2021/06/18 04:34:56;;;;;;;30.30;27.17;;;26.70;99.90;;;;;;5074295;28;20443;-70
2021/06/18 04:37:23;;;;;;;36.60;33.10;;;27.20;99.90;;;;;;5062875;28;20446;-69
2021/06/18 04:39:50;;;;;;;40.33;36.40;;;27.50;99.90;;;;;;5068215;28;20451;-69
2021/06/18 04:42:18;;;;;;;35.93;32.40;;;27.70;99.90;;;;;;5059385;28;20478;-69
2021/06/18 04:44:45;;;;;;;40.03;36.23;;;27.90;99.90;;;;;;5060743;28;20452;-68
2021/06/18 04:47:12;;;;;;;41.07;37.27;;;28.00;99.90;;;;;;5069686;28;20459;-69
2021/06/18 04:49:40;;;;;;;38.30;34.40;;;28.10;99.90;;;;;;5060971;28;20808;-69
2021/06/18 04:52:07;;;;;;;44.00;40.07;;;28.40;99.90;;;;;;5069241;28;20495;-69
2021/06/18 04:54:35;;;;;;;43.47;39.33;;;28.70;99.00;;;;;;5071443;28;20491;-69
2021/06/18 04:57:02;;;;;;;42.63;38.73;;;28.80;98.50;;;;;;5064413;28;20786;-68
2021/06/18 04:59:30;;;;;;;35.07;31.60;;;29.10;98.00;;;;;;5060336;28;20453;-68
2021/06/18 05:01:57;;;;;;;36.37;32.77;;;29.20;97.30;;;;;;5066763;28;20986;-69
2021/06/18 05:04:24;;;;;;;41.50;35.73;;;29.60;96.60;;;;;;5069668;28;20803;-68
2021/06/18 05:06:53;;;;;;;39.97;36.47;;;29.80;95.80;;;;;;5065777;28;20445;-68
2021/06/18 05:09:20;;;;;;;35.30;31.77;;;29.90;95.30;;;;;;5056636;28;20450;-69
2021/06/18 05:11:47;;;;;;;37.27;33.57;;;30.10;95.00;;;;;;5064257;28;20486;-68
2021/06/18 05:14:15;;;;;;;30.83;28.03;;;30.40;94.70;;;;;;5056315;28;20486;-68
2021/06/18 05:16:42;;;;;;;32.87;29.63;;;30.60;94.00;;;;;;5063017;28;20445;-69
2021/06/18 05:19:10;;;;;;;34.63;31.30;;;30.80;93.30;;;;;;5057596;28;20500;-69
2021/06/18 05:21:37;;;;;;;33.67;30.50;;;31.00;92.80;;;;;;5070626;28;20548;-70
2021/06/18 05:24:07;;;;;;;30.67;27.67;;;31.20;92.20;;;;;;5068737;28;20429;-69
2021/06/18 05:26:36;;;;;;;37.80;33.93;;;31.50;92.00;;;;;;5069829;28;20476;-70
2021/06/18 05:29:03;;;;;;;37.17;33.33;;;31.50;91.40;;;;;;5062667;28;20446;-70
2021/06/18 05:31:31;;;;;;;35.73;32.57;;;31.30;91.30;;;;;;5058927;28;20470;-71
2021/06/18 05:33:58;;;;;;;32.83;29.57;;;31.40;91.40;;;;;;5065806;28;20500;-69
2021/06/18 05:36:25;;;;;;;32.77;29.23;;;31.60;91.20;;;;;;5069814;28;20912;-69
2021/06/18 05:38:52;;;;;;;33.13;30.13;;;32.00;90.80;;;;;;5071762;28;20449;-69
2021/06/18 05:41:20;;;;;;;34.00;30.80;;;32.10;90.30;;;;;;5063504;28;21034;-69
2021/06/18 05:43:48;;;;;;;33.87;30.57;;;32.20;90.10;;;;;;5058209;28;20819;-70
2021/06/18 05:46:15;;;;;;;39.13;35.20;;;32.10;89.80;;;;;;5071014;28;20437;-69
2021/06/18 05:48:42;;;;;;;32.10;29.20;;;32.10;89.80;;;;;;5059873;28;20458;-68
2021/06/18 05:51:09;;;;;;;32.57;29.33;;;32.30;89.90;;;;;;5066349;28;20455;-69
2021/06/18 05:53:36;;;;;;;30.20;27.50;;;32.60;88.70;;;;;;5061359;28;20485;-70
2021/06/18 05:56:05;;;;;;;30.17;27.13;;;32.80;87.90;;;;;;5064095;28;20448;-70
2021/06/18 05:58:33;;;;;;;29.63;26.90;;;33.00;87.20;;;;;;5058365;28;20482;-70
2021/06/18 06:01:00;;;;;;;31.70;28.47;;;33.20;86.50;;;;;;5056701;28;20868;-69
2021/06/18 06:03:27;;;;;;;32.30;27.90;;;33.20;85.80;;;;;;5060768;28;20448;-69
2021/06/18 06:05:55;;;;;;;33.23;29.97;;;33.20;86.20;;;;;;5071628;28;20472;-70
2021/06/18 06:08:22;;;;;;;32.43;29.13;;;33.40;85.60;;;;;;5064602;28;20442;-69
2021/06/18 06:10:51;;;;;;;31.87;28.53;;;33.40;85.40;;;;;;5066881;28;20973;-70
2021/06/18 06:13:19;;;;;;;34.37;30.93;;;33.70;85.20;;;;;;5063059;28;20441;-70
2021/06/18 06:15:49;;;;;;;38.17;34.23;;;33.80;84.10;;;;;;5063551;28;20445;-68
2021/06/18 06:18:16;;;;;;;36.00;32.40;;;33.80;84.70;;;;;;5070781;28;20445;-71
2021/06/18 06:20:44;;;;;;;36.37;32.97;;;33.50;84.70;;;;;;5064114;28;20529;-71
2021/06/18 06:23:11;;;;;;;39.60;30.97;;;33.80;84.00;;;;;;5066546;28;20461;-69
2021/06/18 06:25:39;;;;;;;32.33;28.50;;;33.60;85.20;;;;;;5058243;28;20530;-70
2021/06/18 06:28:06;;;;;;;31.10;26.40;;;33.70;84.20;;;;;;5063481;28;20540;-69
2021/06/18 06:30:34;;;;;;;26.67;24.20;;;33.80;83.90;;;;;;5068733;28;20441;-71
2021/06/18 06:33:03;;;;;;;28.10;25.60;;;34.00;83.50;;;;;;5069723;28;20465;-70
2021/06/18 06:35:30;;;;;;;28.00;25.60;;;34.20;82.80;;;;;;5072156;28;20544;-70
2021/06/18 06:37:57;;;;;;;30.17;27.20;;;34.30;81.70;;;;;;5063061;28;20446;-69
2021/06/18 06:40:24;;;;;;;28.97;26.30;;;34.30;81.50;;;;;;5069145;28;20445;-70
2021/06/18 06:42:52;;;;;;;28.50;25.27;;;34.30;81.20;;;;;;5071826;28;20815;-70
2021/06/18 06:45:21;;;;;;;32.43;29.40;;;34.50;81.10;;;;;;5069508;28;20449;-70
2021/06/18 06:47:49;;;;;;;31.33;28.30;;;34.70;80.40;;;;;;5059908;28;20475;-70
2021/06/18 06:50:18;;;;;;;29.67;26.93;;;34.50;80.40;;;;;;5064087;28;20449;-70
2021/06/18 06:52:45;;;;;;;31.80;28.70;;;34.70;80.90;;;;;;5060835;28;20469;-70
2021/06/18 06:55:13;;;;;;;26.20;23.60;;;34.80;79.90;;;;;;5070830;28;20488;-69
2021/06/18 06:57:41;;;;;;;28.57;26.03;;;34.90;80.30;;;;;;5062763;28;20453;-71
2021/06/18 07:00:09;;;;;;;35.40;31.73;;;34.80;80.20;;;;;;5057608;28;20946;-70
2021/06/18 07:02:36;;;;;;;34.20;27.43;;;34.40;79.90;;;;;;5066952;28;20466;-69
2021/06/18 07:05:04;;;;;;;29.70;26.90;;;33.70;82.00;;;;;;5070216;28;20520;-70
2021/06/18 07:07:33;;;;;;;29.07;26.40;;;33.20;83.20;;;;;;5067526;28;20921;-70
2021/06/18 07:10:00;;;;;;;32.43;29.03;;;33.00;84.30;;;;;;5062337;28;20452;-70
2021/06/18 07:12:27;;;;;;;27.77;24.87;;;33.50;84.20;;;;;;5063960;28;20476;-70
2021/06/18 07:14:56;;;;;;;25.83;23.33;;;33.40;83.50;;;;;;5069010;28;20485;-70
2021/06/18 07:17:23;;;;;;;24.63;22.30;;;33.30;84.10;;;;;;5060212;28;20473;-69
2021/06/18 07:19:50;;;;;;;26.97;24.27;;;33.30;84.50;;;;;;5061996;28;20452;-70
2021/06/18 07:22:19;;;;;;;27.50;24.70;;;33.30;83.90;;;;;;5070423;28;20468;-69
2021/06/18 07:24:48;;;;;;;25.77;23.37;;;33.60;83.30;;;;;;5069494;28;20858;-69
2021/06/18 07:27:16;;;;;;;28.00;24.27;;;34.10;83.10;;;;;;5061203;28;20551;-69
2021/06/18 07:29:44;;;;;;;25.50;22.93;;;34.70;80.90;;;;;;5061800;28;20814;-69
2021/06/18 07:32:11;;;;;;;26.13;23.73;;;35.20;79.20;;;;;;5058527;28;20474;-70
2021/06/18 07:34:39;;;;;;;24.33;21.83;;;35.50;77.90;;;;;;5064147;28;20481;-70
2021/06/18 07:37:07;;;;;;;24.63;22.40;;;36.00;77.50;;;;;;5069784;28;20810;-70
2021/06/18 07:39:34;;;;;;;25.23;22.80;;;36.20;76.30;;;;;;5058186;28;20446;-70
2021/06/18 07:42:03;;;;;;;24.57;22.30;;;36.70;75.30;;;;;;5064343;28;20461;-70
2021/06/18 07:44:31;;;;;;;23.60;21.47;;;37.20;74.00;;;;;;5057897;28;20434;-68
2021/06/18 07:46:58;;;;;;;23.27;20.87;;;37.70;72.90;;;;;;5059218;28;20541;-69
2021/06/18 07:49:25;;;;;;;15.30;14.00;;;38.20;71.20;;;;;;5062229;28;20458;-70
2021/06/18 07:51:52;;;;;;;17.57;16.07;;;38.50;69.90;;;;;;5064659;28;20469;-70
2021/06/18 07:54:20;;;;;;;22.40;20.50;;;38.70;68.90;;;;;;5060786;28;20482;-71
2021/06/18 07:56:47;;;;;;;17.53;16.13;;;39.00;67.40;;;;;;5057735;28;20478;-69
2021/06/18 07:59:16;;;;;;;19.47;17.37;;;39.10;67.50;;;;;;5058271;28;20560;-70
2021/06/18 08:01:43;;;;;;;19.87;17.90;;;39.00;67.10;;;;;;5064571;28;20470;-69
2021/06/18 08:04:10;;;;;;;25.27;20.70;;;38.90;66.30;;;;;;5067780;28;20460;-70
2021/06/18 08:06:37;;;;;;;28.67;23.40;;;38.80;65.90;;;;;;5070978;28;20547;-68
2021/06/18 08:09:05;;;;;;;20.30;18.27;;;38.60;66.40;;;;;;5059658;28;20446;-68
2021/06/18 08:11:32;;;;;;;20.53;18.40;;;38.60;67.00;;;;;;5062805;28;20476;-69
2021/06/18 08:13:59;;;;;;;22.03;20.13;;;39.00;66.70;;;;;;5057738;28;20497;-69
2021/06/18 08:16:28;;;;;;;21.57;19.67;;;39.20;65.60;;;;;;5058827;28;20460;-69
2021/06/18 08:18:55;;;;;;;18.97;17.17;;;39.60;65.90;;;;;;5061909;28;20793;-70
2021/06/18 08:21:22;;;;;;;23.97;21.80;;;39.90;65.20;;;;;;5054255;28;20469;-70
2021/06/18 08:23:49;;;;;;;19.80;17.30;;;40.10;64.00;;;;;;5064772;28;20536;-70
2021/06/18 08:26:17;;;;;;;19.33;17.47;;;40.40;63.30;;;;;;5070028;28;20795;-70
2021/06/18 08:28:44;;;;;;;19.93;18.00;;;40.10;63.00;;;;;;5065729;28;20755;-70
2021/06/18 08:31:11;;;;;;;21.60;19.17;;;39.90;63.00;;;;;;5060875;28;20462;-69
2021/06/18 08:33:39;;;;;;;17.90;16.30;;;39.90;63.60;;;;;;5068178;28;20833;-69
2021/06/18 08:36:07;;;;;;;19.03;17.33;;;40.20;63.10;;;;;;5062013;28;20493;-70
2021/06/18 08:38:35;;;;;;;18.40;16.67;;;40.60;61.70;;;;;;5068410;28;20559;-70
2021/06/18 08:41:04;;;;;;;16.20;14.73;;;40.70;61.20;;;;;;5060799;28;20472;-69
2021/06/18 08:43:33;;;;;;;18.97;17.30;;;40.70;61.40;;;;;;5056348;28;20450;-68
2021/06/18 08:46:02;;;;;;;19.40;17.70;;;40.60;60.70;;;;;;5068620;28;20498;-70
2021/06/18 08:48:29;;;;;;;17.67;15.77;;;40.40;60.40;;;;;;5064933;28;20457;-70
2021/06/18 08:50:59;;;;;;;16.47;14.87;;;39.90;61.60;;;;;;5063138;28;20821;-69
2021/06/18 08:53:26;;;;;;;19.40;16.60;;;39.80;62.30;;;;;;5069355;28;20441;-71
2021/06/18 08:55:55;;;;;;;17.23;15.57;;;39.60;61.80;;;;;;5064140;28;20504;-70
2021/06/18 08:58:22;;;;;;;16.80;15.40;;;39.60;62.40;;;;;;5060931;28;20441;-70
2021/06/18 09:00:51;;;;;;;16.27;14.40;;;39.50;62.70;;;;;;5061782;28;20507;-71
2021/06/18 09:03:38;;;;;;;17.87;16.10;;;39.70;62.10;;;;;;5072907;28;20480;-71
2021/06/18 09:06:42;;;;;;;21.17;18.10;;;40.30;60.80;;;;;;5071073;28;20916;-70
2021/06/18 09:09:18;;;;;;;20.87;17.17;;;39.90;60.80;;;;;;5057945;28;20456;-70
2021/06/18 09:11:47;;;;;;;27.60;18.53;;;39.60;61.40;;;;;;5063519;28;20487;-69
2021/06/18 09:14:20;;;;;;;19.20;14.50;;;39.30;62.00;;;;;;5061975;28;20464;-70
2021/06/18 09:17:12;;;;;;;20.43;17.60;;;39.20;62.70;;;;;;5062461;28;20456;-71
2021/06/18 09:19:42;;;;;;;21.43;19.30;;;39.00;62.20;;;;;;5066287;28;20794;-71
2021/06/18 09:22:12;;;;;;;18.97;16.97;;;39.20;62.40;;;;;;5061033;28;20492;-70
2021/06/18 09:24:42;;;;;;;25.10;18.87;;;39.50;62.40;;;;;;5070415;28;20498;-71
2021/06/18 09:27:09;;;;;;;22.73;20.60;;;39.30;62.40;;;;;;5073868;28;20437;-70
2021/06/18 09:29:37;;;;;;;21.33;19.13;;;39.00;62.80;;;;;;5057345;28;20442;-69
2021/06/18 09:32:06;;;;;;;21.80;18.30;;;38.80;63.10;;;;;;5055618;28;20837;-71
2021/06/18 09:34:40;;;;;;;20.20;18.30;;;38.50;64.70;;;;;;5067006;28;20489;-70
2021/06/18 09:37:31;;;;;;;20.57;18.47;;;38.50;64.80;;;;;;5068761;28;20453;-68
2021/06/18 09:40:16;;;;;;;21.77;19.47;;;38.90;65.20;;;;;;5054266;28;20450;-69
2021/06/18 09:42:59;;;;;;;21.57;19.73;;;38.80;64.30;;;;;;5067574;28;20530;-70
2021/06/18 09:45:28;;;;;;;19.73;17.83;;;38.70;65.40;;;;;;5067135;28;20446;-69
2021/06/18 09:48:09;;;;;;;21.20;19.23;;;39.00;64.20;;;;;;5057295;28;20544;-70
2021/06/18 09:50:39;;;;;;;23.27;20.93;;;38.40;64.80;;;;;;5058043;28;20503;-69
2021/06/18 09:53:14;;;;;;;17.23;15.67;;;37.90;66.20;;;;;;5057283;28;20481;-70
2021/06/18 09:55:43;;;;;;;17.60;15.90;;;37.90;66.90;;;;;;5059066;28;20770;-70
2021/06/18 09:58:11;;;;;;;17.13;15.33;;;38.20;66.40;;;;;;5059451;28;20449;-69
2021/06/18 10:00:39;;;;;;;20.50;18.63;;;38.60;66.00;;;;;;5061998;28;20449;-69
2021/06/18 10:03:11;;;;;;;22.60;20.37;;;39.00;65.30;;;;;;5066657;28;20473;-69
2021/06/18 10:05:39;;;;;;;17.60;15.93;;;38.80;65.20;;;;;;5071964;28;20441;-69
2021/06/18 10:08:07;;;;;;;14.87;13.47;;;38.40;66.60;;;;;;5062137;28;20512;-69
2021/06/18 10:10:36;;;;;;;17.87;16.17;;;38.30;67.30;;;;;;5058733;28;20449;-71
2021/06/18 10:13:05;;;;;;;18.73;16.93;;;38.10;67.40;;;;;;5060148;28;20474;-70
2021/06/18 10:15:37;;;;;;;19.20;17.60;;;38.10;68.00;;;;;;5063071;28;20486;-71
2021/06/18 10:18:11;;;;;;;14.87;13.27;;;38.40;67.10;;;;;;5060930;28;20907;-70
2021/06/18 10:20:38;;;;;;;21.13;19.13;;;38.40;67.30;;;;;;5065185;28;20805;-71
2021/06/18 10:23:11;;;;;;;16.33;14.83;;;37.90;67.60;;;;;;5066013;28;20551;-70
2021/06/18 10:25:40;;;;;;;19.40;17.10;;;37.70;68.10;;;;;;5072279;28;20472;-70
2021/06/18 10:28:11;;;;;;;18.13;16.40;;;37.50;68.40;;;;;;5064941;28;20459;-69
2021/06/18 10:30:46;;;;;;;17.60;16.00;;;37.30;69.10;;;;;;5066976;28;20471;-70
2021/06/18 10:33:34;;;;;;;18.53;16.90;;;36.70;70.10;;;;;;5065229;28;20461;-70
2021/06/18 10:36:20;;;;;;;15.07;13.33;;;36.90;70.30;;;;;;5058751;28;20483;-69
2021/06/18 10:39:00;;;;;;;16.97;15.40;;;37.20;70.80;;;;;;5061670;28;20441;-70
2021/06/18 10:41:28;;;;;;;19.67;16.97;;;37.00;70.40;;;;;;5071738;28;20993;-71
2021/06/18 10:43:58;;;;;;;20.50;15.83;;;36.50;71.30;;;;;;5057935;28;20457;-71
2021/06/18 10:46:29;;;;;;;28.00;19.00;;;36.20;72.50;;;;;;5068250;28;20434;-70
2021/06/18 10:49:08;;;;;;;23.47;21.50;;;35.60;73.60;;;;;;5069718;28;20951;-71
2021/06/18 10:51:57;;;;;;;23.50;21.00;;;35.10;75.20;;;;;;5053220;28;20956;-70
2021/06/18 10:54:46;;;;;;;20.67;18.80;;;34.70;76.50;;;;;;5054090;28;20454;-69
2021/06/18 10:57:15;;;;;;;21.77;19.77;;;34.60;77.40;;;;;;5077467;28;20453;-69
2021/06/18 10:59:46;;;;;;;20.00;18.20;;;34.50;78.40;;;;;;5062865;28;20446;-70
2021/06/18 11:02:34;;;;;;;16.20;14.60;;;34.40;79.20;;;;;;5061467;28;20519;-69
2021/06/18 11:05:03;;;;;;;17.33;15.37;;;34.30;79.60;;;;;;5065418;28;20923;-70
2021/06/18 11:07:32;;;;;;;24.17;22.13;;;34.40;80.30;;;;;;5066859;28;20465;-70
2021/06/18 11:10:00;;;;;;;19.53;17.53;;;34.20;80.10;;;;;;5068646;28;20446;-70
2021/06/18 11:12:44;;;;;;;23.80;21.30;;;34.00;81.40;;;;;;5058844;28;20474;-71
2021/06/18 11:15:39;;;;;;;19.60;17.90;;;34.10;80.90;;;;;;5064299;28;20472;-70
2021/06/18 11:18:13;;;;;;;20.60;18.67;;;34.20;81.60;;;;;;5057484;28;20454;-71
2021/06/18 11:20:58;;;;;;;21.23;19.20;;;34.20;81.90;;;;;;5071093;28;20818;-70
2021/06/18 11:23:38;;;;;;;24.40;22.13;;;34.10;82.10;;;;;;5062725;28;20578;-70
2021/06/18 11:26:10;;;;;;;19.83;17.83;;;34.00;82.00;;;;;;5057281;28;20456;-69
2021/06/18 11:28:47;;;;;;;20.40;18.43;;;33.90;82.20;;;;;;5067182;28;20482;-69
2021/06/18 11:31:20;;;;;;;18.50;16.90;;;33.90;83.50;;;;;;5069515;28;20468;-69
2021/06/18 11:33:53;;;;;;;20.90;19.10;;;33.80;84.20;;;;;;5063883;28;21011;-69
2021/06/18 11:36:47;;;;;;;19.07;17.10;;;33.90;84.00;;;;;;5064432;28;21060;-69
2021/06/18 11:39:34;;;;;;;23.77;19.90;;;33.70;84.70;;;;;;5061493;28;20447;-69
2021/06/18 11:42:07;;;;;;;17.53;15.77;;;33.60;85.40;;;;;;5060157;28;20514;-70
2021/06/18 11:44:35;;;;;;;20.63;18.73;;;33.60;86.00;;;;;;5068277;28;20907;-68
2021/06/18 11:47:04;;;;;;;18.47;16.93;;;33.50;85.90;;;;;;5062143;28;20453;-69
2021/06/18 11:49:36;;;;;;;21.60;19.60;;;33.50;86.30;;;;;;5063033;28;20463;-69
2021/06/18 11:52:12;;;;;;;20.83;16.93;;;33.40;85.80;;;;;;5065383;28;20480;-68
2021/06/18 11:54:42;;;;;;;18.10;16.47;;;33.40;86.70;;;;;;5069178;28;20471;-70
2021/06/18 11:57:22;;;;;;;18.00;16.10;;;33.40;86.90;;;;;;5061141;28;20493;-71
2021/06/18 11:59:54;;;;;;;18.47;16.87;;;33.40;86.30;;;;;;5061045;28;20799;-69
2021/06/18 12:02:26;;;;;;;19.47;15.10;;;33.40;86.90;;;;;;5054367;28;20457;-70
2021/06/18 12:05:15;;;;;;;17.03;15.53;;;33.30;87.20;;;;;;5068992;28;20441;-70
2021/06/18 12:07:42;;;;;;;18.60;16.70;;;33.40;86.50;;;;;;5069232;28;20524;-70
2021/06/18 12:10:23;;;;;;;15.90;14.30;;;33.50;86.10;;;;;;5069802;28;20441;-69
2021/06/18 12:12:50;;;;;;;15.10;13.70;;;33.50;86.60;;;;;;5062276;28;20499;-70
2021/06/18 12:15:20;;;;;;;16.73;15.27;;;33.40;86.90;;;;;;5055807;28;20568;-69
2021/06/18 12:17:58;;;;;;;16.90;15.20;;;33.40;86.90;;;;;;5061899;28;20449;-69
2021/06/18 12:20:31;;;;;;;14.40;12.70;;;33.40;87.70;;;;;;5066366;28;20453;-68
2021/06/18 12:22:59;;;;;;;18.83;14.30;;;33.40;87.80;;;;;;5066687;28;20487;-70
2021/06/18 12:25:27;;;;;;;16.70;11.27;;;33.40;86.90;;;;;;5065195;28;20994;-70
2021/06/18 12:27:59;;;;;;;11.40;10.30;;;33.40;86.60;;;;;;5063859;28;20454;-69
2021/06/18 12:30:30;;;;;;;12.57;11.30;;;33.50;86.50;;;;;;5062297;28;20450;-69
2021/06/18 12:33:00;;;;;;;13.67;11.80;;;33.60;86.00;;;;;;5063297;28;20530;-69
2021/06/18 12:35:41;;;;;;;12.50;11.13;;;33.70;85.60;;;;;;5066283;28;20480;-70
2021/06/18 12:38:10;;;;;;;14.10;11.37;;;33.70;85.50;;;;;;5065668;28;20446;-70
2021/06/18 12:40:38;;;;;;;12.47;11.47;;;33.70;85.30;;;;;;5068751;28;20449;-70
2021/06/18 12:43:08;;;;;;;13.43;12.23;;;33.80;85.20;;;;;;5058809;28;20919;-70